createdAt,value
2018-03-08T00:01:13.929Z,2.58
2018-03-08T00:03:40.162Z,2.40
2018-03-08T00:06:06.346Z,2.20
2018-03-08T00:08:33.258Z,2.03
2018-03-08T00:10:59.493Z,1.80
2018-03-08T00:13:25.734Z,2.33
2018-03-08T00:15:51.994Z,2.50
2018-03-08T00:18:18.175Z,2.45
2018-03-08T00:20:44.353Z,2.45
2018-03-08T00:23:10.597Z,2.70
2018-03-08T00:25:36.801Z,2.70
2018-03-08T00:28:03.017Z,2.73
2018-03-08T00:30:30.013Z,2.58
2018-03-08T00:32:56.270Z,2.83
2018-03-08T00:35:22.472Z,2.45
2018-03-08T00:37:48.649Z,2.75
2018-03-08T00:40:15.644Z,2.90
2018-03-08T00:42:41.865Z,2.75
2018-03-08T00:45:08.022Z,3.00
2018-03-08T00:47:34.301Z,3.20
2018-03-08T00:50:00.516Z,2.83
2018-03-08T00:52:26.705Z,2.92
2018-03-08T00:54:52.923Z,2.65
2018-03-08T00:57:19.173Z,2.70
2018-03-08T00:59:45.376Z,2.78
2018-03-08T01:02:11.593Z,2.83
2018-03-08T01:04:37.853Z,2.55
2018-03-08T01:07:04.055Z,2.30
2018-03-08T01:09:30.249Z,2.50
2018-03-08T01:11:56.501Z,2.70
2018-03-08T01:14:22.709Z,2.28
2018-03-08T01:16:48.929Z,1.85
2018-03-08T01:19:15.208Z,2.33
2018-03-08T01:21:41.416Z,2.65
2018-03-08T01:24:07.602Z,2.65
2018-03-08T01:26:33.848Z,2.58
2018-03-08T01:29:00.060Z,2.62
2018-03-08T01:31:26.230Z,2.40
2018-03-08T01:33:52.485Z,2.47
2018-03-08T01:36:26.768Z,2.62
2018-03-08T01:38:53.021Z,2.62
2018-03-08T01:41:19.226Z,2.42
2018-03-08T01:43:45.446Z,2.40
2018-03-08T01:46:11.687Z,2.58
2018-03-08T01:48:37.877Z,2.62
2018-03-08T01:51:04.153Z,2.45
2018-03-08T01:53:30.391Z,2.60
2018-03-08T01:55:56.583Z,2.28
2018-03-08T01:58:22.755Z,2.65
2018-03-08T02:00:49.013Z,2.30
2018-03-08T02:03:15.225Z,2.62
2018-03-08T02:05:42.160Z,2.25
2018-03-08T02:08:08.422Z,1.90
2018-03-08T02:10:34.645Z,2.45
2018-03-08T02:13:00.843Z,2.35
2018-03-08T02:15:27.097Z,2.37
2018-03-08T02:17:53.313Z,3.00
2018-03-08T02:20:20.253Z,2.33
2018-03-08T02:22:47.305Z,2.47
2018-03-08T02:25:14.235Z,2.45
2018-03-08T02:27:40.481Z,2.40
2018-03-08T02:30:07.400Z,2.15
2018-03-08T02:32:33.610Z,1.98
2018-03-08T02:34:59.833Z,2.30
2018-03-08T02:37:26.039Z,2.65
2018-03-08T02:39:52.244Z,2.05
2018-03-08T02:42:18.480Z,2.20
2018-03-08T02:44:44.641Z,2.05
2018-03-08T02:47:10.828Z,2.17
2018-03-08T02:49:37.144Z,2.15
2018-03-08T02:52:04.107Z,2.33
2018-03-08T02:54:30.325Z,2.70
2018-03-08T02:56:56.583Z,2.00
2018-03-08T02:59:22.765Z,2.72
2018-03-08T03:01:49.716Z,2.37
2018-03-08T03:04:15.927Z,2.67
2018-03-08T03:06:42.151Z,2.37
2018-03-08T03:09:08.355Z,2.50
2018-03-08T03:11:34.592Z,2.50
2018-03-08T03:14:00.748Z,1.95
2018-03-08T03:16:27.689Z,1.77
2018-03-08T03:18:53.910Z,2.10
2018-03-08T03:21:20.105Z,2.08
2018-03-08T03:23:46.317Z,2.20
2018-03-08T03:26:12.561Z,1.90
2018-03-08T03:28:38.732Z,1.73
2018-03-08T03:31:04.946Z,1.95
2018-03-08T03:33:31.179Z,1.85
2018-03-08T03:35:57.383Z,2.20
2018-03-08T03:38:23.614Z,1.70
2018-03-08T03:40:49.809Z,1.60
2018-03-08T03:43:16.019Z,1.75
2018-03-08T03:45:42.271Z,1.40
2018-03-08T03:48:08.446Z,1.92
2018-03-08T03:50:34.737Z,1.70
2018-03-08T03:53:00.938Z,1.98
2018-03-08T03:55:27.212Z,1.33
2018-03-08T03:57:53.371Z,2.20
2018-03-08T04:00:20.344Z,1.62
2018-03-08T04:02:46.575Z,1.92
2018-03-08T04:05:12.768Z,1.80
2018-03-08T04:07:39.704Z,2.12
2018-03-08T04:10:05.924Z,1.80
2018-03-08T04:12:32.160Z,2.35
2018-03-08T04:14:58.381Z,1.70
2018-03-08T04:17:24.617Z,1.80
2018-03-08T04:19:51.568Z,1.50
2018-03-08T04:22:18.505Z,1.73
2018-03-08T04:24:44.767Z,1.70
2018-03-08T04:27:10.948Z,2.08
2018-03-08T04:29:37.115Z,2.35
2018-03-08T04:32:03.292Z,1.98
2018-03-08T04:34:29.481Z,2.37
2018-03-08T04:36:55.677Z,2.12
2018-03-08T04:39:22.611Z,1.98
2018-03-08T04:41:48.795Z,1.60
2018-03-08T04:44:14.992Z,2.17
2018-03-08T04:46:41.171Z,2.10
2018-03-08T04:49:07.362Z,2.03
2018-03-08T04:51:33.583Z,2.40
2018-03-08T04:53:59.789Z,1.60
2018-03-08T04:56:26.737Z,1.95
2018-03-08T04:58:53.660Z,2.30
2018-03-08T05:01:19.848Z,1.67
2018-03-08T05:03:46.042Z,2.30
2018-03-08T05:06:12.235Z,2.33
2018-03-08T05:08:38.452Z,2.78
2018-03-08T05:11:04.650Z,2.07
2018-03-08T05:13:30.847Z,3.20
2018-03-08T05:15:57.853Z,2.40
2018-03-08T05:18:24.069Z,2.00
2018-03-08T05:20:50.236Z,2.03
2018-03-08T05:23:16.437Z,2.60
2018-03-08T05:25:42.612Z,3.80
2018-03-08T05:28:08.803Z,3.70
2018-03-08T05:30:34.997Z,2.97
2018-03-08T05:33:01.211Z,2.65
2018-03-08T05:35:27.416Z,3.20
2018-03-08T05:37:54.374Z,2.03
2018-03-08T05:40:20.583Z,2.27
2018-03-08T05:42:47.491Z,2.27
2018-03-08T05:45:13.710Z,2.50
2018-03-08T05:47:39.921Z,2.35
2018-03-08T05:50:06.137Z,3.03
2018-03-08T05:52:32.351Z,2.72
2018-03-08T05:54:58.503Z,2.17
2018-03-08T05:57:24.737Z,2.67
2018-03-08T05:59:50.964Z,2.12
2018-03-08T06:02:17.154Z,2.55
2018-03-08T06:04:43.361Z,2.87
2018-03-08T06:07:10.365Z,2.87
2018-03-08T06:09:36.568Z,2.87
2018-03-08T06:12:02.728Z,2.20
2018-03-08T06:14:28.973Z,2.45
2018-03-08T06:16:55.165Z,2.35
2018-03-08T06:19:21.407Z,2.05
2018-03-08T06:21:47.609Z,2.50
2018-03-08T06:24:13.879Z,2.30
2018-03-08T06:26:40.099Z,2.20
2018-03-08T06:29:06.338Z,2.65
2018-03-08T06:31:32.583Z,2.60
2018-03-08T06:34:02.238Z,2.65
2018-03-08T06:36:28.456Z,2.87
2018-03-08T06:38:54.649Z,2.78
2018-03-08T06:41:20.847Z,3.10
2018-03-08T06:43:47.076Z,2.70
2018-03-08T06:46:13.306Z,2.95
2018-03-08T06:48:39.545Z,2.95
2018-03-08T06:51:05.773Z,2.87
2018-03-08T06:53:31.989Z,2.75
2018-03-08T06:55:58.204Z,2.70
2018-03-08T06:58:24.408Z,3.00
2018-03-08T07:00:50.703Z,2.60
2018-03-08T07:03:17.637Z,2.85
2018-03-08T07:05:43.821Z,3.97
2018-03-08T07:08:10.032Z,3.90
2018-03-08T07:10:36.224Z,2.70
2018-03-08T07:13:02.480Z,2.80
2018-03-08T07:15:28.677Z,2.58
2018-03-08T07:17:54.963Z,2.80
2018-03-08T07:20:21.177Z,3.33
2018-03-08T07:22:47.351Z,2.53
2018-03-08T07:25:13.593Z,2.62
2018-03-08T07:27:40.570Z,2.85
2018-03-08T07:30:06.785Z,1.90
2018-03-08T07:32:33.729Z,2.10
2018-03-08T07:34:59.932Z,2.20
2018-03-08T07:37:26.155Z,2.50
2018-03-08T07:39:52.373Z,2.30
2018-03-08T07:42:18.601Z,3.17
2018-03-08T07:44:44.800Z,2.37
2018-03-08T07:47:11.000Z,2.50
2018-03-08T07:49:37.949Z,2.87
2018-03-08T07:52:04.852Z,2.43
2018-03-08T07:54:31.042Z,4.77
2018-03-08T07:56:57.272Z,5.33
2018-03-08T07:59:23.465Z,3.70
2018-03-08T08:01:50.393Z,16.90
2018-03-08T08:04:29.014Z,12.80
2018-03-08T08:07:08.220Z,16.98
2018-03-08T08:09:34.418Z,8.37
2018-03-08T08:12:00.614Z,11.10
2018-03-08T08:14:27.539Z,6.77
2018-03-08T08:16:53.710Z,6.60
2018-03-08T08:19:19.939Z,7.90
2018-03-08T08:21:46.172Z,8.10
2018-03-08T08:24:12.397Z,6.32
2018-03-08T08:26:38.652Z,8.73
2018-03-08T08:29:04.870Z,6.87
2018-03-08T08:31:31.085Z,8.88
2018-03-08T08:33:57.285Z,2.90
2018-03-08T08:36:24.259Z,3.22
2018-03-08T08:38:50.447Z,3.07
2018-03-08T08:41:17.375Z,2.85
2018-03-08T08:43:43.573Z,2.30
2018-03-08T08:46:09.808Z,3.00
2018-03-08T08:48:35.998Z,3.20
2018-03-08T08:51:02.266Z,3.80
2018-03-08T08:53:28.431Z,2.33
2018-03-08T08:55:54.609Z,3.33
2018-03-08T08:58:20.837Z,4.77
2018-03-08T09:00:47.099Z,4.00
2018-03-08T09:03:13.298Z,4.10
2018-03-08T09:05:39.521Z,2.93
2018-03-08T09:08:05.738Z,3.87
2018-03-08T09:10:31.935Z,2.70
2018-03-08T09:12:58.897Z,3.43
2018-03-08T09:15:25.106Z,2.77
2018-03-08T09:17:52.088Z,2.60
2018-03-08T09:20:18.270Z,2.80
2018-03-08T09:22:45.237Z,3.30
2018-03-08T09:25:11.424Z,2.87
2018-03-08T09:27:37.602Z,2.10
2018-03-08T09:30:03.867Z,2.70
2018-03-08T09:32:30.065Z,2.70
2018-03-08T09:34:56.284Z,2.30
2018-03-08T09:37:22.497Z,2.50
2018-03-08T09:39:48.716Z,3.17
2018-03-08T09:42:15.624Z,2.57
2018-03-08T09:44:41.838Z,2.30
2018-03-08T09:47:08.070Z,2.50
2018-03-08T09:49:34.260Z,2.10
2018-03-08T09:52:00.467Z,2.43
2018-03-08T09:54:27.386Z,2.60
2018-03-08T09:56:53.598Z,2.30
2018-03-08T09:59:19.807Z,1.80
2018-03-08T10:01:46.020Z,2.23
2018-03-08T10:04:12.245Z,1.93
2018-03-08T10:06:38.432Z,2.43
2018-03-08T10:09:04.707Z,2.30
2018-03-08T10:11:30.914Z,2.20
2018-03-08T10:13:57.128Z,1.73
2018-03-08T10:16:23.344Z,2.57
2018-03-08T10:18:49.529Z,2.20
2018-03-08T10:21:15.733Z,2.10
2018-03-08T10:23:41.954Z,3.37
2018-03-08T10:26:08.914Z,2.37
2018-03-08T10:28:35.114Z,2.23
2018-03-08T10:31:02.059Z,1.80
2018-03-08T10:33:29.009Z,2.13
2018-03-08T10:35:55.937Z,1.30
2018-03-08T10:38:22.140Z,2.03
2018-03-08T10:40:48.363Z,1.80
2018-03-08T10:43:14.544Z,2.20
2018-03-08T10:45:41.489Z,2.20
2018-03-08T10:48:08.446Z,1.87
2018-03-08T10:50:34.640Z,2.30
2018-03-08T10:53:00.876Z,2.63
2018-03-08T10:55:27.856Z,1.90
2018-03-08T10:57:54.067Z,1.60
2018-03-08T11:00:27.096Z,1.70
2018-03-08T11:02:54.113Z,2.00
2018-03-08T11:05:21.273Z,1.97
2018-03-08T11:07:47.510Z,2.20
2018-03-08T11:10:13.706Z,1.67
2018-03-08T11:12:40.641Z,1.60
2018-03-08T11:15:06.816Z,1.77
2018-03-08T11:17:33.021Z,2.33
2018-03-08T11:19:59.250Z,3.00
2018-03-08T11:22:25.435Z,1.93
2018-03-08T11:24:51.620Z,2.13
2018-03-08T11:27:17.830Z,2.03
2018-03-08T11:29:44.057Z,1.63
2018-03-08T11:32:10.312Z,1.77
2018-03-08T11:34:36.510Z,1.40
2018-03-08T11:37:02.745Z,1.80
2018-03-08T11:39:28.970Z,1.50
2018-03-08T11:41:55.153Z,2.03
2018-03-08T11:44:21.325Z,2.07
2018-03-08T11:46:47.521Z,1.67
2018-03-08T11:49:14.451Z,1.83
2018-03-08T11:51:40.620Z,3.00
2018-03-08T11:54:06.800Z,2.23
2018-03-08T11:56:33.017Z,1.97
2018-03-08T11:58:59.244Z,1.83
2018-03-08T12:01:25.407Z,1.73
2018-03-08T12:03:52.359Z,1.70
2018-03-08T12:06:18.614Z,1.60
2018-03-08T12:08:44.836Z,1.80
2018-03-08T12:11:11.009Z,1.83
2018-03-08T12:13:37.214Z,1.60
2018-03-08T12:16:03.470Z,1.77
2018-03-08T12:18:29.627Z,1.53
2018-03-08T12:20:55.847Z,1.70
2018-03-08T12:23:22.040Z,1.10
2018-03-08T12:25:48.270Z,1.47
2018-03-08T12:28:14.432Z,1.43
2018-03-08T12:30:40.647Z,1.77
2018-03-08T12:33:07.580Z,2.07
2018-03-08T12:35:33.820Z,1.40
2018-03-08T12:37:59.969Z,1.40
2018-03-08T12:40:26.156Z,1.30
2018-03-08T12:42:52.388Z,1.80
2018-03-08T12:45:18.613Z,1.60
2018-03-08T12:47:44.847Z,1.60
2018-03-08T12:50:11.809Z,1.70
2018-03-08T12:52:38.742Z,1.50
2018-03-08T12:55:05.712Z,1.70
2018-03-08T12:57:31.926Z,1.30
2018-03-08T12:59:58.867Z,1.43
2018-03-08T13:02:25.814Z,1.47
2018-03-08T13:04:52.762Z,1.53
2018-03-08T13:07:19.677Z,1.40
2018-03-08T13:09:45.909Z,1.13
2018-03-08T13:12:12.091Z,1.83
2018-03-08T13:14:38.300Z,1.43
2018-03-08T13:17:04.528Z,1.10
2018-03-08T13:19:30.775Z,1.13
2018-03-08T13:21:57.677Z,1.00
2018-03-08T13:24:24.628Z,1.30
2018-03-08T13:26:51.536Z,1.40
2018-03-08T13:29:17.736Z,1.50
2018-03-08T13:31:43.990Z,1.30
2018-03-08T13:34:10.170Z,1.10
2018-03-08T13:36:36.393Z,1.70
2018-03-08T13:39:02.665Z,1.63
2018-03-08T13:41:28.880Z,1.30
2018-03-08T13:43:55.082Z,1.30
2018-03-08T13:46:21.276Z,1.50
2018-03-08T13:48:47.461Z,1.13
2018-03-08T13:51:13.666Z,1.30
2018-03-08T13:53:39.852Z,1.10
2018-03-08T13:56:06.064Z,1.20
2018-03-08T13:58:32.232Z,1.47
2018-03-08T14:00:59.123Z,1.30
2018-03-08T14:03:25.374Z,1.30
2018-03-08T14:05:51.572Z,1.10
2018-03-08T14:08:17.789Z,1.50
2018-03-08T14:10:44.022Z,1.70
2018-03-08T14:13:10.239Z,1.67
2018-03-08T14:15:36.464Z,1.13
2018-03-08T14:18:02.704Z,1.80
2018-03-08T14:20:28.942Z,1.77
2018-03-08T14:22:55.166Z,1.00
2018-03-08T14:25:21.403Z,1.00
2018-03-08T14:27:47.599Z,1.20
2018-03-08T14:30:13.830Z,1.23
2018-03-08T14:32:40.043Z,1.10
2018-03-08T14:35:06.274Z,1.47
2018-03-08T14:37:32.523Z,1.30
2018-03-08T14:39:58.772Z,1.10
2018-03-08T14:42:25.012Z,1.07
2018-03-08T14:44:51.197Z,1.73
2018-03-08T14:47:17.453Z,1.73
2018-03-08T14:49:43.735Z,1.10
2018-03-08T14:52:09.976Z,1.20
2018-03-08T14:54:36.202Z,1.23
2018-03-08T14:57:02.406Z,1.40
2018-03-08T14:59:29.349Z,1.20
2018-03-08T15:01:55.572Z,1.20
2018-03-08T15:04:21.796Z,0.90
2018-03-08T15:06:48.024Z,0.90
2018-03-08T15:09:14.290Z,1.97
2018-03-08T15:11:40.484Z,1.27
2018-03-08T15:14:06.677Z,1.43
2018-03-08T15:16:32.978Z,1.23
2018-03-08T15:18:59.205Z,1.03
2018-03-08T15:21:25.475Z,1.30
2018-03-08T15:23:51.660Z,1.20
2018-03-08T15:26:17.886Z,1.20
2018-03-08T15:28:44.094Z,1.30
2018-03-08T15:31:11.065Z,1.30
2018-03-08T15:33:37.253Z,1.10
2018-03-08T15:36:03.486Z,1.30
2018-03-08T15:38:29.708Z,1.50
2018-03-08T15:40:55.937Z,0.70
2018-03-08T15:43:22.176Z,1.00
2018-03-08T15:45:48.378Z,1.30
2018-03-08T15:48:14.574Z,1.10
2018-03-08T15:50:40.784Z,0.90
2018-03-08T15:53:06.993Z,0.90
2018-03-08T15:55:33.201Z,1.50
2018-03-08T15:57:59.398Z,1.20
2018-03-08T16:00:25.569Z,1.07
2018-03-08T16:02:52.511Z,0.90
2018-03-08T16:05:18.758Z,1.10
2018-03-08T16:11:02.592Z,1.00
2018-03-08T16:13:28.812Z,1.20
2018-03-08T16:15:55.022Z,1.20
2018-03-08T16:18:21.303Z,1.30
2018-03-08T16:20:48.285Z,0.97
2018-03-08T16:23:14.444Z,1.80
2018-03-08T16:25:40.655Z,1.37
2018-03-08T16:28:06.897Z,1.37
2018-03-08T16:30:33.104Z,1.00
2018-03-08T16:32:59.314Z,0.80
2018-03-08T16:35:25.534Z,1.00
2018-03-08T16:37:51.772Z,1.23
2018-03-08T16:40:17.997Z,1.23
2018-03-08T16:42:44.179Z,1.10
2018-03-08T16:45:11.146Z,1.60
2018-03-08T16:47:38.058Z,1.03
2018-03-08T16:50:04.298Z,1.10
2018-03-08T16:52:31.249Z,0.90
2018-03-08T16:54:58.261Z,1.43
2018-03-08T16:57:24.609Z,1.10
2018-03-08T16:59:50.754Z,1.60
2018-03-08T17:02:17.731Z,1.33
2018-03-08T17:04:43.948Z,1.57
2018-03-08T17:07:10.191Z,1.53
2018-03-08T17:09:36.377Z,1.47
2018-03-08T17:12:02.610Z,1.73
2018-03-08T17:14:28.819Z,1.30
2018-03-08T17:16:55.016Z,1.50
2018-03-08T17:19:21.290Z,1.07
2018-03-08T17:21:47.604Z,1.20
2018-03-08T17:24:13.813Z,1.90
2018-03-08T17:26:40.053Z,1.63
2018-03-08T17:29:06.265Z,1.80
2018-03-08T17:31:32.486Z,1.63
2018-03-08T17:33:58.678Z,1.63
2018-03-08T17:36:24.893Z,1.40
2018-03-08T17:38:51.857Z,1.87
2018-03-08T17:41:18.045Z,1.30
2018-03-08T17:43:44.269Z,2.13
2018-03-08T17:46:10.496Z,2.60
2018-03-08T17:48:36.677Z,2.30
2018-03-08T17:51:02.918Z,2.17
2018-03-08T17:53:29.110Z,2.97
2018-03-08T17:55:55.355Z,4.20
2018-03-08T17:58:21.558Z,4.17
2018-03-08T18:00:48.885Z,5.70
2018-03-08T18:03:15.104Z,5.23
2018-03-08T18:05:41.278Z,2.50
2018-03-08T18:08:07.469Z,2.77
2018-03-08T18:10:33.714Z,2.40
2018-03-08T18:12:59.917Z,2.60
2018-03-08T18:15:26.149Z,5.10
2018-03-08T18:17:52.319Z,2.70
2018-03-08T18:20:18.526Z,2.37
2018-03-08T18:22:44.710Z,1.90
2018-03-08T18:25:10.961Z,2.30
2018-03-08T18:27:37.206Z,5.77
2018-03-08T18:30:03.503Z,4.27
2018-03-08T18:32:29.669Z,2.47
2018-03-08T18:34:55.892Z,2.60
2018-03-08T18:37:22.869Z,2.47
2018-03-08T18:39:49.100Z,2.17
2018-03-08T18:42:15.313Z,2.00
2018-03-08T18:44:41.598Z,1.80
2018-03-08T18:47:07.837Z,1.80
2018-03-08T18:49:34.163Z,1.90
2018-03-08T18:52:00.445Z,2.50
2018-03-08T18:54:26.642Z,1.90
2018-03-08T18:56:53.561Z,2.60
2018-03-08T18:59:19.879Z,2.40
2018-03-08T19:01:46.157Z,2.37
2018-03-08T19:04:12.379Z,2.77
2018-03-08T19:06:39.409Z,2.87
2018-03-08T19:09:05.652Z,2.70
2018-03-08T19:11:32.612Z,2.40
2018-03-08T19:13:58.779Z,2.60
2018-03-08T19:16:24.968Z,2.70
2018-03-08T19:18:51.239Z,2.27
2018-03-08T19:21:17.437Z,2.30
2018-03-08T19:23:43.595Z,2.00
2018-03-08T19:26:09.779Z,2.17
2018-03-08T19:28:36.049Z,2.00
2018-03-08T19:31:02.266Z,2.17
2018-03-08T19:33:28.445Z,2.50
2018-03-08T19:35:55.387Z,2.60
2018-03-08T19:38:21.685Z,2.03
2018-03-08T19:40:47.871Z,2.10
2018-03-08T19:43:14.106Z,2.30
2018-03-08T19:45:40.313Z,1.80
2018-03-08T19:48:06.525Z,1.20
2018-03-08T19:50:33.485Z,1.60
2018-03-08T19:52:59.666Z,2.23
2018-03-08T19:55:25.934Z,1.40
2018-03-08T19:57:52.893Z,1.23
2018-03-08T20:00:19.081Z,1.70
2018-03-08T20:02:45.415Z,1.80
2018-03-08T20:05:11.601Z,1.80
2018-03-08T20:07:37.822Z,1.37
2018-03-08T20:10:04.045Z,1.90
2018-03-08T20:12:30.222Z,1.67
2018-03-08T20:14:56.424Z,1.40
2018-03-08T20:17:22.632Z,2.13
2018-03-08T20:19:48.830Z,1.50
2018-03-08T20:22:15.821Z,2.10
2018-03-08T20:24:42.018Z,2.03
2018-03-08T20:27:08.209Z,1.40
2018-03-08T20:29:34.478Z,1.50
2018-03-08T20:32:00.688Z,1.40
2018-03-08T20:34:27.697Z,1.90
2018-03-08T20:36:53.915Z,1.37
2018-03-08T20:39:20.127Z,1.87
2018-03-08T20:41:46.342Z,1.90
2018-03-08T20:44:12.550Z,1.50
2018-03-08T20:46:38.766Z,1.60
2018-03-08T20:49:05.719Z,1.23
2018-03-08T20:51:32.737Z,1.83
2018-03-08T20:53:59.003Z,1.40
2018-03-08T20:56:25.233Z,1.73
2018-03-08T20:58:51.467Z,1.80
2018-03-08T21:01:17.660Z,2.00
2018-03-08T21:03:43.869Z,2.20
2018-03-08T21:06:10.059Z,1.50
2018-03-08T21:08:36.294Z,1.50
2018-03-08T21:11:02.544Z,2.33
2018-03-08T21:13:28.757Z,1.83
2018-03-08T21:15:54.956Z,1.33
2018-03-08T21:18:21.188Z,1.37
2018-03-08T21:20:47.391Z,1.87
2018-03-08T21:23:13.556Z,1.63
2018-03-08T21:25:39.766Z,1.30
2018-03-08T21:28:06.010Z,2.20
2018-03-08T21:30:32.206Z,1.77
2018-03-08T21:32:58.488Z,1.77
2018-03-08T21:35:24.651Z,1.60
2018-03-08T21:37:51.580Z,2.20
2018-03-08T21:40:17.769Z,1.60
2018-03-08T21:42:43.955Z,1.87
2018-03-08T21:45:10.867Z,1.70
2018-03-08T21:47:37.061Z,1.80
2018-03-08T21:50:03.292Z,1.30
2018-03-08T21:52:29.525Z,1.70
2018-03-08T21:54:55.736Z,1.90
2018-03-08T21:57:21.965Z,1.73
2018-03-08T21:59:48.145Z,2.07
2018-03-08T22:02:14.350Z,1.80
2018-03-08T22:04:40.578Z,1.70
2018-03-08T22:07:06.790Z,1.70
2018-03-08T22:09:33.062Z,2.50
2018-03-08T22:11:59.293Z,2.10
2018-03-08T22:14:25.486Z,2.03
2018-03-08T22:16:51.677Z,2.37
2018-03-08T22:19:17.910Z,2.77
2018-03-08T22:21:44.115Z,2.60
2018-03-08T22:24:11.098Z,2.53
2018-03-08T22:26:37.304Z,3.07
2018-03-08T22:29:03.527Z,2.47
2018-03-08T22:31:29.743Z,2.63
2018-03-08T22:33:56.660Z,2.93
2018-03-08T22:36:22.856Z,3.63
2018-03-08T22:38:49.080Z,2.70
2018-03-08T22:41:15.301Z,3.50
2018-03-08T22:43:41.501Z,2.80
2018-03-08T22:46:08.438Z,3.40
2018-03-08T22:48:35.389Z,3.17
2018-03-08T22:51:02.363Z,3.37
2018-03-08T22:53:28.611Z,3.00
2018-03-08T22:55:54.808Z,3.07
2018-03-08T22:58:21.041Z,3.17
2018-03-08T23:00:47.316Z,3.47
2018-03-08T23:03:19.604Z,3.13
2018-03-08T23:05:45.791Z,3.20
2018-03-08T23:08:12.004Z,3.33
2018-03-08T23:10:38.228Z,3.40
2018-03-08T23:13:04.418Z,3.17
2018-03-08T23:15:30.596Z,2.90
2018-03-08T23:17:56.791Z,2.90
2018-03-08T23:20:23.731Z,2.60
2018-03-08T23:22:50.656Z,2.23
2018-03-08T23:25:16.877Z,3.33
2018-03-08T23:27:43.065Z,2.60
2018-03-08T23:30:09.250Z,2.60
2018-03-08T23:32:36.224Z,2.57
2018-03-08T23:35:02.443Z,2.77
2018-03-08T23:37:28.648Z,2.63
2018-03-08T23:39:55.565Z,3.10
2018-03-08T23:42:21.792Z,2.00
2018-03-08T23:44:48.028Z,2.63
2018-03-08T23:47:14.235Z,2.40
2018-03-08T23:49:40.453Z,3.17
2018-03-08T23:52:06.658Z,2.10
2018-03-08T23:54:32.928Z,2.13
2018-03-08T23:56:59.156Z,2.33
2018-03-08T23:59:25.376Z,2.30
